createdAt,value
2022-12-03T00:00:39.157Z,98076.00
2022-12-03T00:04:40.483Z,98070.00
2022-12-03T00:08:41.734Z,98072.00
2022-12-03T00:12:42.931Z,98044.00
2022-12-03T00:16:44.001Z,98065.00
2022-12-03T00:20:46.433Z,98060.00
2022-12-03T00:24:47.500Z,98058.00
2022-12-03T00:28:48.902Z,98061.00
2022-12-03T00:32:50.388Z,98061.00
2022-12-03T00:36:51.771Z,98070.00
2022-12-03T00:40:53.043Z,98062.00
2022-12-03T00:44:54.503Z,98053.00
2022-12-03T00:48:55.799Z,98057.00
2022-12-03T00:52:56.867Z,98058.00
2022-12-03T00:56:58.231Z,98057.00
2022-12-03T01:00:59.369Z,98048.00
2022-12-03T01:05:01.151Z,98043.00
2022-12-03T01:09:02.812Z,98054.00
2022-12-03T01:13:03.930Z,98051.00
2022-12-03T01:17:06.157Z,98049.00
2022-12-03T01:21:07.432Z,98056.00
2022-12-03T01:25:09.790Z,98047.00
2022-12-03T01:29:11.048Z,98070.00
2022-12-03T01:33:12.252Z,98070.00
2022-12-03T01:37:14.185Z,98064.00
2022-12-03T01:41:17.736Z,98069.00
2022-12-03T01:45:22.255Z,98063.00
2022-12-03T01:49:29.864Z,98062.00
2022-12-03T01:53:30.958Z,98059.00
2022-12-03T01:57:35.851Z,98065.00
2022-12-03T02:01:37.090Z,98060.00
2022-12-03T02:05:38.629Z,98074.00
2022-12-03T02:09:39.948Z,98068.00
2022-12-03T02:13:42.100Z,98061.00
2022-12-03T02:17:43.971Z,98069.00
2022-12-03T02:21:52.116Z,98068.00
2022-12-03T02:25:53.545Z,98063.00
2022-12-03T02:29:55.380Z,98059.00
2022-12-03T02:33:56.650Z,98058.00
2022-12-03T02:38:13.864Z,98065.00
2022-12-03T02:42:34.216Z,98065.00
2022-12-03T02:46:35.731Z,98068.00
2022-12-03T02:50:43.384Z,98051.00
2022-12-03T02:54:44.855Z,98060.00
2022-12-03T02:58:48.983Z,98062.00
2022-12-03T03:02:50.431Z,98060.00
2022-12-03T03:06:51.999Z,98064.00
2022-12-03T03:10:54.282Z,98066.00
2022-12-03T03:14:55.904Z,98049.00
2022-12-03T03:18:57.213Z,98058.00
2022-12-03T03:23:13.113Z,98058.00
2022-12-03T03:27:14.162Z,98058.00
2022-12-03T03:31:18.610Z,98049.00
2022-12-03T03:35:20.200Z,98112.00
2022-12-03T03:39:21.802Z,98052.00
2022-12-03T03:43:24.509Z,98048.00
2022-12-03T03:47:26.085Z,98050.00
2022-12-03T03:51:27.305Z,98040.00
2022-12-03T03:55:28.706Z,98051.00
2022-12-03T03:59:29.991Z,98038.00
2022-12-03T04:03:31.311Z,98041.00
2022-12-03T04:07:32.510Z,98035.00
2022-12-03T04:11:52.398Z,98021.00
2022-12-03T04:15:53.512Z,98025.00
2022-12-03T04:19:54.812Z,98029.00
2022-12-03T04:23:56.007Z,98034.00
2022-12-03T04:28:15.721Z,98013.00
2022-12-03T04:32:35.358Z,98017.00
2022-12-03T04:36:36.554Z,98016.00
2022-12-03T04:40:56.757Z,98007.00
2022-12-03T04:44:58.018Z,98000.00
2022-12-03T04:48:59.216Z,98000.00
2022-12-03T04:53:00.225Z,98002.00
2022-12-03T04:57:02.297Z,98005.00
2022-12-03T05:01:03.385Z,97992.00
2022-12-03T05:05:05.285Z,98004.00
2022-12-03T05:09:06.363Z,98005.00
2022-12-03T05:13:07.617Z,98009.00
2022-12-03T05:17:08.704Z,98018.00
2022-12-03T05:21:09.992Z,98015.00
2022-12-03T05:25:11.146Z,98018.00
2022-12-03T05:29:12.335Z,98015.00
2022-12-03T05:33:13.694Z,98010.00
2022-12-03T05:37:14.834Z,98011.00
2022-12-03T05:41:34.456Z,98003.00
2022-12-03T05:45:38.712Z,98031.00
2022-12-03T05:49:40.045Z,98006.00
2022-12-03T05:53:41.273Z,98015.00
2022-12-03T05:57:42.883Z,98006.00
2022-12-03T06:01:44.120Z,98022.00
2022-12-03T06:05:45.305Z,98016.00
2022-12-03T06:09:46.508Z,98024.00
2022-12-03T06:13:47.808Z,98011.00
2022-12-03T06:17:49.592Z,98010.00
2022-12-03T06:21:50.672Z,98014.00
2022-12-03T06:25:52.076Z,98025.00
2022-12-03T06:29:53.221Z,98013.00
2022-12-03T06:33:54.732Z,98010.00
2022-12-03T06:37:56.275Z,98017.00
2022-12-03T06:41:57.716Z,98016.00
2022-12-03T06:45:58.902Z,98003.00
2022-12-03T06:50:00.152Z,98015.00
2022-12-03T06:54:02.339Z,98000.00
2022-12-03T06:58:03.575Z,98008.00
2022-12-03T07:02:05.182Z,98011.00
2022-12-03T07:06:08.294Z,97930.00
2022-12-03T07:10:10.252Z,98015.00
2022-12-03T07:14:11.668Z,98002.00
2022-12-03T07:18:12.955Z,98006.00
2022-12-03T07:22:14.126Z,97915.00
2022-12-03T07:26:15.263Z,98012.00
2022-12-03T07:30:17.271Z,98011.00
2022-12-03T07:34:18.569Z,98009.00
2022-12-03T07:38:19.644Z,98008.00
2022-12-03T07:42:20.917Z,98001.00
2022-12-03T07:46:22.144Z,98005.00
2022-12-03T07:50:23.663Z,98012.00
2022-12-03T07:54:25.500Z,98009.00
2022-12-03T07:58:27.011Z,98011.00
2022-12-03T08:02:28.353Z,98000.00
2022-12-03T08:06:29.575Z,98002.00
2022-12-03T08:10:30.770Z,98007.00
2022-12-03T08:14:31.881Z,98025.00
2022-12-03T08:18:33.174Z,97999.00
2022-12-03T08:22:34.404Z,98007.00
2022-12-03T08:26:35.691Z,98013.00
2022-12-03T08:30:37.220Z,98009.00
2022-12-03T08:34:41.383Z,98009.00
2022-12-03T08:38:46.525Z,98009.00
2022-12-03T08:42:47.951Z,98017.00
2022-12-03T08:47:08.179Z,98016.00
2022-12-03T08:51:26.702Z,98011.00
2022-12-03T08:55:36.567Z,98005.00
2022-12-03T08:59:40.304Z,98016.00
2022-12-03T09:03:50.790Z,98013.00
2022-12-03T09:07:52.260Z,98016.00
2022-12-03T09:11:54.346Z,98012.00
2022-12-03T09:15:55.404Z,98014.00
2022-12-03T09:19:56.542Z,98012.00
2022-12-03T09:23:57.707Z,98012.00
2022-12-03T09:27:58.906Z,98006.00
2022-12-03T09:32:00.172Z,98003.00
2022-12-03T09:36:01.454Z,98002.00
2022-12-03T09:40:03.259Z,98004.00
2022-12-03T09:44:05.685Z,98009.00
2022-12-03T09:48:07.411Z,98001.00
2022-12-03T09:52:12.302Z,98000.00
2022-12-03T09:56:17.370Z,98002.00
2022-12-03T10:00:23.139Z,98003.00
2022-12-03T10:04:24.639Z,97981.00
2022-12-03T10:08:32.016Z,97977.00
2022-12-03T10:12:31.210Z,97982.00
2022-12-03T10:16:33.212Z,97973.00
2022-12-03T10:20:34.697Z,97990.00
2022-12-03T10:24:37.219Z,97970.00
2022-12-03T10:28:41.843Z,97967.00
2022-12-03T10:32:46.266Z,97956.00
2022-12-03T10:36:49.374Z,97956.00
2022-12-03T10:40:53.235Z,97953.00
2022-12-03T10:45:17.289Z,97938.00
2022-12-03T10:49:19.352Z,97946.00
2022-12-03T10:53:30.183Z,97943.00
2022-12-03T10:57:31.676Z,97942.00
2022-12-03T11:01:33.249Z,97940.00
2022-12-03T11:05:34.357Z,97940.00
2022-12-03T11:09:35.810Z,97935.00
2022-12-03T11:13:40.876Z,97932.00
2022-12-03T11:17:50.927Z,97904.00
2022-12-03T11:22:11.014Z,97931.00
2022-12-03T11:26:30.468Z,97934.00
2022-12-03T11:30:57.980Z,97923.00
2022-12-03T11:34:59.315Z,97915.00
2022-12-03T11:39:00.466Z,97922.00
2022-12-03T11:43:01.735Z,97904.00
2022-12-03T11:47:06.916Z,97901.00
2022-12-03T11:51:16.807Z,97886.00
2022-12-03T11:55:37.884Z,97899.00
2022-12-03T11:59:42.776Z,97891.00
2022-12-03T12:03:49.559Z,97896.00
2022-12-03T12:07:52.112Z,97887.00
2022-12-03T12:11:53.224Z,97884.00
2022-12-03T12:15:55.023Z,97880.00
2022-12-03T12:20:15.455Z,97868.00
2022-12-03T12:24:32.829Z,97879.00
2022-12-03T12:28:34.155Z,97857.00
2022-12-03T12:32:51.502Z,97860.00
2022-12-03T12:36:56.080Z,97850.00
2022-12-03T12:40:57.316Z,97848.00
2022-12-03T12:45:02.185Z,97852.00
2022-12-03T12:49:14.462Z,97853.00
2022-12-03T12:53:24.292Z,97854.00
2022-12-03T12:57:25.341Z,97845.00
2022-12-03T13:01:29.969Z,97846.00
2022-12-03T13:05:43.671Z,97845.00
2022-12-03T13:09:44.938Z,97844.00
2022-12-03T13:13:46.284Z,97847.00
2022-12-03T13:17:47.341Z,97844.00
2022-12-03T13:21:49.800Z,97849.00
2022-12-03T13:26:01.766Z,97848.00
2022-12-03T13:29:58.379Z,97841.00
2022-12-03T13:34:01.460Z,97854.00
2022-12-03T13:38:13.162Z,97854.00
2022-12-03T13:42:38.634Z,97850.00
2022-12-03T13:46:39.855Z,97842.00
2022-12-03T13:50:45.412Z,97838.00
2022-12-03T13:54:49.530Z,97835.00
2022-12-03T13:58:50.894Z,97831.00
2022-12-03T14:02:52.133Z,97832.00
2022-12-03T14:06:53.414Z,97802.00
2022-12-03T14:11:00.227Z,97819.00
2022-12-03T14:14:57.647Z,97820.00
2022-12-03T14:18:58.724Z,97824.00
2022-12-03T14:23:00.085Z,97826.00
2022-12-03T14:27:01.520Z,97823.00
2022-12-03T14:31:05.036Z,97699.00
2022-12-03T14:35:10.087Z,97828.00
2022-12-03T14:39:10.423Z,97818.00
2022-12-03T14:43:11.577Z,97817.00
2022-12-03T14:47:14.374Z,97824.00
2022-12-03T14:51:15.720Z,97822.00
2022-12-03T14:55:17.003Z,97822.00
2022-12-03T14:59:20.718Z,97813.00
2022-12-03T15:03:21.972Z,97820.00
2022-12-03T15:07:23.400Z,97809.00
2022-12-03T15:11:24.674Z,97817.00
2022-12-03T15:15:26.109Z,97815.00
2022-12-03T15:19:27.075Z,97812.00
2022-12-03T15:23:28.044Z,97820.00
2022-12-03T15:27:29.185Z,97822.00
2022-12-03T15:31:30.251Z,97814.00
2022-12-03T15:35:31.947Z,97828.00
2022-12-03T15:39:34.894Z,97828.00
2022-12-03T15:43:35.867Z,97816.00
2022-12-03T15:47:36.977Z,97819.00
2022-12-03T15:51:38.019Z,97821.00
2022-12-03T15:55:39.051Z,97828.00
2022-12-03T15:59:40.184Z,97824.00
2022-12-03T16:03:41.325Z,97829.00
2022-12-03T16:07:42.399Z,97823.00
2022-12-03T16:11:43.456Z,97829.00
2022-12-03T16:15:44.586Z,97827.00
2022-12-03T16:19:46.024Z,97825.00
2022-12-03T16:23:47.224Z,97834.00
2022-12-03T16:27:48.339Z,97830.00
2022-12-03T16:31:49.415Z,97828.00
2022-12-03T16:35:50.455Z,97830.00
2022-12-03T16:39:51.715Z,97834.00
2022-12-03T16:43:52.999Z,97825.00
2022-12-03T16:47:54.016Z,97813.00
2022-12-03T16:51:55.047Z,97823.00
2022-12-03T16:55:56.059Z,97819.00
2022-12-03T16:59:57.106Z,97820.00
2022-12-03T17:03:58.116Z,97814.00
2022-12-03T17:07:59.230Z,97810.00
2022-12-03T17:12:00.312Z,97812.00
2022-12-03T17:16:01.319Z,97819.00
2022-12-03T17:20:04.453Z,97808.00
2022-12-03T17:24:05.983Z,97806.00
2022-12-03T17:28:07.185Z,97808.00
2022-12-03T17:32:08.309Z,97805.00
2022-12-03T17:36:10.404Z,97809.00
2022-12-03T17:40:13.398Z,97804.00
2022-12-03T17:44:19.426Z,97805.00
2022-12-03T17:48:17.248Z,97793.00
2022-12-03T17:52:18.401Z,97798.00
2022-12-03T17:56:19.577Z,97793.00
2022-12-03T18:00:20.890Z,97779.00
2022-12-03T18:04:21.965Z,97777.00
2022-12-03T18:08:23.374Z,97796.00
2022-12-03T18:12:24.836Z,97788.00
2022-12-03T18:16:26.015Z,97788.00
2022-12-03T18:20:27.410Z,97780.00
2022-12-03T18:24:29.877Z,97791.00
2022-12-03T18:28:31.216Z,97778.00
2022-12-03T18:32:32.674Z,97788.00
2022-12-03T18:36:35.695Z,97787.00
2022-12-03T18:40:38.801Z,97781.00
2022-12-03T18:44:42.736Z,97774.00
2022-12-03T18:48:45.303Z,97778.00
2022-12-03T18:52:46.487Z,97766.00
2022-12-03T18:56:47.558Z,97768.00
2022-12-03T19:00:48.904Z,97779.00
2022-12-03T19:04:49.964Z,97767.00
2022-12-03T19:08:53.054Z,97771.00
2022-12-03T19:12:54.030Z,97767.00
2022-12-03T19:16:55.313Z,97770.00
2022-12-03T19:20:56.486Z,97767.00
2022-12-03T19:24:57.617Z,97757.00
2022-12-03T19:28:59.122Z,97768.00
2022-12-03T19:33:00.673Z,97768.00
2022-12-03T19:37:01.708Z,97752.00
2022-12-03T19:41:08.405Z,97755.00
2022-12-03T19:45:10.480Z,97760.00
2022-12-03T19:49:11.942Z,97758.00
2022-12-03T19:53:12.985Z,97751.00
2022-12-03T19:57:18.061Z,97751.00
2022-12-03T20:01:19.639Z,97754.00
2022-12-03T20:05:20.716Z,97766.00
2022-12-03T20:09:22.051Z,97765.00
2022-12-03T20:13:23.191Z,97756.00
2022-12-03T20:17:24.201Z,97749.00
2022-12-03T20:21:26.199Z,97743.00
2022-12-03T20:25:27.232Z,97753.00
2022-12-03T20:29:28.256Z,97758.00
2022-12-03T20:33:29.942Z,97754.00
2022-12-03T20:37:31.335Z,97741.00
2022-12-03T20:41:34.870Z,97741.00
2022-12-03T20:45:36.075Z,97743.00
2022-12-03T20:49:38.641Z,97748.00
2022-12-03T20:53:41.429Z,97752.00
2022-12-03T20:57:42.532Z,97757.00
2022-12-03T21:01:44.419Z,97747.00
2022-12-03T21:05:45.485Z,97748.00
2022-12-03T21:09:46.724Z,97745.00
2022-12-03T21:13:48.002Z,97740.00
2022-12-03T21:17:49.619Z,97740.00
2022-12-03T21:21:50.814Z,97725.00
2022-12-03T21:25:51.779Z,97735.00
2022-12-03T21:29:53.227Z,97729.00
2022-12-03T21:33:55.780Z,97739.00
2022-12-03T21:37:56.921Z,97735.00
2022-12-03T21:42:19.223Z,97734.00
2022-12-03T21:47:08.250Z,97735.00
2022-12-03T21:50:10.809Z,97728.00
2022-12-03T21:54:11.778Z,97729.00
2022-12-03T21:58:12.931Z,97727.00
2022-12-03T22:02:14.248Z,97727.00
2022-12-03T22:06:16.017Z,97727.00
2022-12-03T22:10:17.422Z,97740.00
2022-12-03T22:14:20.085Z,97730.00
2022-12-03T22:18:21.098Z,97730.00
2022-12-03T22:22:22.081Z,97729.00
2022-12-03T22:26:23.160Z,97724.00
2022-12-03T22:30:24.169Z,97713.00
2022-12-03T22:34:25.252Z,97724.00
2022-12-03T22:38:28.319Z,97725.00
2022-12-03T22:42:29.353Z,97718.00
2022-12-03T22:46:33.591Z,97715.00
2022-12-03T22:50:43.887Z,97710.00
2022-12-03T22:54:45.390Z,97673.00
2022-12-03T22:58:46.440Z,97701.00
2022-12-03T23:02:47.664Z,97710.00
2022-12-03T23:06:48.934Z,97712.00
2022-12-03T23:10:52.186Z,97695.00
2022-12-03T23:14:54.518Z,97695.00
2022-12-03T23:18:58.507Z,97687.00
2022-12-03T23:22:59.561Z,97693.00
2022-12-03T23:27:00.867Z,97696.00
2022-12-03T23:31:03.347Z,97677.00
2022-12-03T23:35:05.609Z,97667.00
2022-12-03T23:39:06.786Z,97666.00
2022-12-03T23:43:07.823Z,97671.00
2022-12-03T23:47:11.665Z,97647.00
2022-12-03T23:51:16.005Z,97655.00
2022-12-03T23:55:17.316Z,97659.00
2022-12-03T23:59:18.555Z,97659.00
